sensor_id;sensor_type;location;lat;lon;timestamp;P1;durP1;ratioP1;P2;durP2;ratioP2
22764;SDS011;11549;50.852;3.816;2022-10-17T00:01:09;13.32;;;10.70;;
22764;SDS011;11549;50.852;3.816;2022-10-17T00:03:40;13.85;;;10.15;;
22764;SDS011;11549;50.852;3.816;2022-10-17T00:06:10;14.13;;;10.18;;
22764;SDS011;11549;50.852;3.816;2022-10-17T00:08:40;14.00;;;10.85;;
22764;SDS011;11549;50.852;3.816;2022-10-17T00:11:12;13.50;;;10.20;;
22764;SDS011;11549;50.852;3.816;2022-10-17T00:13:42;13.32;;;10.35;;
22764;SDS011;11549;50.852;3.816;2022-10-17T00:16:10;15.38;;;10.57;;
22764;SDS011;11549;50.852;3.816;2022-10-17T00:18:40;17.17;;;11.52;;
22764;SDS011;11549;50.852;3.816;2022-10-17T00:21:13;15.68;;;11.48;;
22764;SDS011;11549;50.852;3.816;2022-10-17T00:23:42;19.08;;;11.45;;
22764;SDS011;11549;50.852;3.816;2022-10-17T00:26:11;18.30;;;11.90;;
22764;SDS011;11549;50.852;3.816;2022-10-17T00:28:39;12.95;;;11.18;;
22764;SDS011;11549;50.852;3.816;2022-10-17T00:31:08;14.73;;;11.55;;
22764;SDS011;11549;50.852;3.816;2022-10-17T00:33:36;17.35;;;11.27;;
22764;SDS011;11549;50.852;3.816;2022-10-17T00:36:07;17.38;;;11.50;;
22764;SDS011;11549;50.852;3.816;2022-10-17T00:38:38;14.15;;;11.45;;
22764;SDS011;11549;50.852;3.816;2022-10-17T00:41:07;13.82;;;11.05;;
22764;SDS011;11549;50.852;3.816;2022-10-17T00:43:53;14.23;;;10.98;;
22764;SDS011;11549;50.852;3.816;2022-10-17T00:46:24;16.70;;;11.43;;
22764;SDS011;11549;50.852;3.816;2022-10-17T00:48:54;14.68;;;11.25;;
22764;SDS011;11549;50.852;3.816;2022-10-17T00:51:26;14.38;;;11.25;;
22764;SDS011;11549;50.852;3.816;2022-10-17T00:54:00;16.30;;;10.70;;
22764;SDS011;11549;50.852;3.816;2022-10-17T00:56:30;15.27;;;10.80;;
22764;SDS011;11549;50.852;3.816;2022-10-17T00:58:59;15.05;;;10.50;;
22764;SDS011;11549;50.852;3.816;2022-10-17T01:01:27;16.20;;;11.13;;
22764;SDS011;11549;50.852;3.816;2022-10-17T01:03:56;14.70;;;10.93;;
22764;SDS011;11549;50.852;3.816;2022-10-17T01:06:25;15.68;;;10.93;;
22764;SDS011;11549;50.852;3.816;2022-10-17T01:08:54;14.25;;;10.98;;
22764;SDS011;11549;50.852;3.816;2022-10-17T01:11:26;13.85;;;10.35;;
22764;SDS011;11549;50.852;3.816;2022-10-17T01:14:05;14.23;;;11.55;;
22764;SDS011;11549;50.852;3.816;2022-10-17T01:16:42;13.68;;;10.80;;
22764;SDS011;11549;50.852;3.816;2022-10-17T01:19:25;14.05;;;10.85;;
22764;SDS011;11549;50.852;3.816;2022-10-17T01:22:08;13.48;;;10.63;;
22764;SDS011;11549;50.852;3.816;2022-10-17T01:24:48;15.40;;;10.95;;
22764;SDS011;11549;50.852;3.816;2022-10-17T01:27:36;14.63;;;10.73;;
22764;SDS011;11549;50.852;3.816;2022-10-17T01:33:16;15.77;;;11.60;;
22764;SDS011;11549;50.852;3.816;2022-10-17T01:35:51;13.20;;;11.07;;
22764;SDS011;11549;50.852;3.816;2022-10-17T01:38:30;15.15;;;10.93;;
22764;SDS011;11549;50.852;3.816;2022-10-17T01:41:03;15.63;;;12.10;;
22764;SDS011;11549;50.852;3.816;2022-10-17T01:43:38;16.17;;;11.63;;
22764;SDS011;11549;50.852;3.816;2022-10-17T01:46:13;14.70;;;12.05;;
22764;SDS011;11549;50.852;3.816;2022-10-17T01:51:14;16.08;;;12.07;;
22764;SDS011;11549;50.852;3.816;2022-10-17T01:53:46;14.07;;;11.03;;
22764;SDS011;11549;50.852;3.816;2022-10-17T01:56:19;17.65;;;12.13;;
22764;SDS011;11549;50.852;3.816;2022-10-17T01:58:51;14.75;;;11.35;;
22764;SDS011;11549;50.852;3.816;2022-10-17T02:01:24;15.90;;;11.55;;
22764;SDS011;11549;50.852;3.816;2022-10-17T02:03:55;17.85;;;11.85;;
22764;SDS011;11549;50.852;3.816;2022-10-17T02:06:25;15.18;;;11.00;;
22764;SDS011;11549;50.852;3.816;2022-10-17T02:08:53;15.88;;;11.00;;
22764;SDS011;11549;50.852;3.816;2022-10-17T02:11:22;15.70;;;11.25;;
22764;SDS011;11549;50.852;3.816;2022-10-17T02:14:03;17.48;;;12.20;;
22764;SDS011;11549;50.852;3.816;2022-10-17T02:16:42;16.75;;;12.80;;
22764;SDS011;11549;50.852;3.816;2022-10-17T02:19:29;18.30;;;12.50;;
22764;SDS011;11549;50.852;3.816;2022-10-17T02:22:15;14.43;;;11.63;;
22764;SDS011;11549;50.852;3.816;2022-10-17T02:24:53;17.50;;;13.27;;
22764;SDS011;11549;50.852;3.816;2022-10-17T02:27:32;14.75;;;11.98;;
22764;SDS011;11549;50.852;3.816;2022-10-17T02:30:06;17.67;;;12.52;;
22764;SDS011;11549;50.852;3.816;2022-10-17T02:32:40;18.10;;;12.77;;
22764;SDS011;11549;50.852;3.816;2022-10-17T02:35:16;19.05;;;12.18;;
22764;SDS011;11549;50.852;3.816;2022-10-17T02:37:46;17.67;;;12.25;;
22764;SDS011;11549;50.852;3.816;2022-10-17T02:40:17;15.23;;;11.60;;
22764;SDS011;11549;50.852;3.816;2022-10-17T02:42:48;17.27;;;12.07;;
22764;SDS011;11549;50.852;3.816;2022-10-17T02:45:19;15.63;;;12.02;;
22764;SDS011;11549;50.852;3.816;2022-10-17T02:47:53;17.30;;;12.25;;
22764;SDS011;11549;50.852;3.816;2022-10-17T02:50:26;15.15;;;12.32;;
22764;SDS011;11549;50.852;3.816;2022-10-17T02:53:01;17.63;;;11.73;;
22764;SDS011;11549;50.852;3.816;2022-10-17T02:55:38;15.45;;;12.23;;
22764;SDS011;11549;50.852;3.816;2022-10-17T02:58:11;19.30;;;13.18;;
22764;SDS011;11549;50.852;3.816;2022-10-17T03:00:44;16.58;;;12.38;;
22764;SDS011;11549;50.852;3.816;2022-10-17T03:03:21;16.95;;;12.30;;
22764;SDS011;11549;50.852;3.816;2022-10-17T03:05:51;15.23;;;11.50;;
22764;SDS011;11549;50.852;3.816;2022-10-17T03:08:20;13.63;;;10.88;;
22764;SDS011;11549;50.852;3.816;2022-10-17T03:10:49;15.43;;;11.32;;
22764;SDS011;11549;50.852;3.816;2022-10-17T03:13:18;15.38;;;11.75;;
22764;SDS011;11549;50.852;3.816;2022-10-17T03:15:46;14.63;;;11.57;;
22764;SDS011;11549;50.852;3.816;2022-10-17T03:18:14;15.68;;;11.48;;
22764;SDS011;11549;50.852;3.816;2022-10-17T03:20:44;13.95;;;10.75;;
22764;SDS011;11549;50.852;3.816;2022-10-17T03:23:12;14.07;;;10.38;;
22764;SDS011;11549;50.852;3.816;2022-10-17T03:25:40;13.48;;;10.32;;
22764;SDS011;11549;50.852;3.816;2022-10-17T03:28:09;13.95;;;10.27;;
22764;SDS011;11549;50.852;3.816;2022-10-17T03:30:37;14.02;;;10.75;;
22764;SDS011;11549;50.852;3.816;2022-10-17T03:33:06;14.82;;;11.32;;
22764;SDS011;11549;50.852;3.816;2022-10-17T03:35:34;15.25;;;10.95;;
22764;SDS011;11549;50.852;3.816;2022-10-17T03:38:06;13.82;;;10.75;;
22764;SDS011;11549;50.852;3.816;2022-10-17T03:40:35;13.80;;;10.48;;
22764;SDS011;11549;50.852;3.816;2022-10-17T03:43:03;13.18;;;10.13;;
22764;SDS011;11549;50.852;3.816;2022-10-17T03:45:31;13.00;;;9.98;;
22764;SDS011;11549;50.852;3.816;2022-10-17T03:48:00;15.68;;;10.60;;
22764;SDS011;11549;50.852;3.816;2022-10-17T03:50:28;15.35;;;10.00;;
22764;SDS011;11549;50.852;3.816;2022-10-17T03:52:56;14.43;;;10.27;;
22764;SDS011;11549;50.852;3.816;2022-10-17T03:55:26;13.25;;;10.50;;
22764;SDS011;11549;50.852;3.816;2022-10-17T03:57:54;15.15;;;10.27;;
22764;SDS011;11549;50.852;3.816;2022-10-17T04:00:22;15.30;;;10.93;;
22764;SDS011;11549;50.852;3.816;2022-10-17T04:02:50;14.85;;;11.10;;
22764;SDS011;11549;50.852;3.816;2022-10-17T04:05:19;14.80;;;10.88;;
22764;SDS011;11549;50.852;3.816;2022-10-17T04:07:47;15.10;;;11.00;;
22764;SDS011;11549;50.852;3.816;2022-10-17T04:10:15;15.98;;;10.68;;
22764;SDS011;11549;50.852;3.816;2022-10-17T04:12:45;13.68;;;10.95;;
22764;SDS011;11549;50.852;3.816;2022-10-17T04:15:13;14.88;;;11.07;;
22764;SDS011;11549;50.852;3.816;2022-10-17T04:17:42;13.30;;;10.27;;
22764;SDS011;11549;50.852;3.816;2022-10-17T04:20:11;12.98;;;10.40;;
22764;SDS011;11549;50.852;3.816;2022-10-17T04:22:39;14.32;;;10.68;;
22764;SDS011;11549;50.852;3.816;2022-10-17T04:25:08;15.38;;;10.60;;
22764;SDS011;11549;50.852;3.816;2022-10-17T04:27:36;15.60;;;10.93;;
22764;SDS011;11549;50.852;3.816;2022-10-17T04:30:06;14.45;;;10.20;;
22764;SDS011;11549;50.852;3.816;2022-10-17T04:32:35;14.95;;;10.13;;
22764;SDS011;11549;50.852;3.816;2022-10-17T04:35:04;14.15;;;10.65;;
22764;SDS011;11549;50.852;3.816;2022-10-17T04:37:33;14.55;;;10.43;;
22764;SDS011;11549;50.852;3.816;2022-10-17T04:40:01;14.95;;;11.13;;
22764;SDS011;11549;50.852;3.816;2022-10-17T04:42:30;17.50;;;11.38;;
22764;SDS011;11549;50.852;3.816;2022-10-17T04:44:58;15.35;;;10.98;;
22764;SDS011;11549;50.852;3.816;2022-10-17T04:47:28;15.88;;;10.95;;
22764;SDS011;11549;50.852;3.816;2022-10-17T04:49:56;14.65;;;11.10;;
22764;SDS011;11549;50.852;3.816;2022-10-17T04:52:24;14.27;;;10.43;;
22764;SDS011;11549;50.852;3.816;2022-10-17T04:54:53;13.95;;;10.82;;
22764;SDS011;11549;50.852;3.816;2022-10-17T04:57:22;12.38;;;10.75;;
22764;SDS011;11549;50.852;3.816;2022-10-17T04:59:50;13.52;;;10.25;;
22764;SDS011;11549;50.852;3.816;2022-10-17T05:02:18;13.32;;;10.65;;
22764;SDS011;11549;50.852;3.816;2022-10-17T05:04:48;17.33;;;10.70;;
22764;SDS011;11549;50.852;3.816;2022-10-17T05:07:17;13.90;;;10.80;;
22764;SDS011;11549;50.852;3.816;2022-10-17T05:09:45;13.80;;;11.07;;
22764;SDS011;11549;50.852;3.816;2022-10-17T05:12:13;14.98;;;11.60;;
22764;SDS011;11549;50.852;3.816;2022-10-17T05:14:41;16.55;;;11.32;;
22764;SDS011;11549;50.852;3.816;2022-10-17T05:17:10;17.52;;;11.25;;
22764;SDS011;11549;50.852;3.816;2022-10-17T05:19:38;14.35;;;11.57;;
22764;SDS011;11549;50.852;3.816;2022-10-17T05:22:07;15.02;;;11.23;;
22764;SDS011;11549;50.852;3.816;2022-10-17T05:24:36;15.13;;;11.02;;
22764;SDS011;11549;50.852;3.816;2022-10-17T05:27:04;18.65;;;10.15;;
22764;SDS011;11549;50.852;3.816;2022-10-17T05:29:33;11.43;;;9.73;;
22764;SDS011;11549;50.852;3.816;2022-10-17T05:32:02;14.77;;;10.02;;
22764;SDS011;11549;50.852;3.816;2022-10-17T05:34:32;11.73;;;9.82;;
22764;SDS011;11549;50.852;3.816;2022-10-17T05:37:00;13.43;;;9.00;;
22764;SDS011;11549;50.852;3.816;2022-10-17T05:39:30;16.77;;;10.15;;
22764;SDS011;11549;50.852;3.816;2022-10-17T05:41:58;14.02;;;9.45;;
22764;SDS011;11549;50.852;3.816;2022-10-17T05:44:26;14.57;;;9.52;;
22764;SDS011;11549;50.852;3.816;2022-10-17T05:46:55;16.33;;;10.07;;
22764;SDS011;11549;50.852;3.816;2022-10-17T05:49:23;13.50;;;9.07;;
22764;SDS011;11549;50.852;3.816;2022-10-17T05:52:10;11.60;;;9.23;;
22764;SDS011;11549;50.852;3.816;2022-10-17T05:54:39;11.90;;;9.13;;
22764;SDS011;11549;50.852;3.816;2022-10-17T05:57:07;13.15;;;9.15;;
22764;SDS011;11549;50.852;3.816;2022-10-17T05:59:36;12.13;;;8.80;;
22764;SDS011;11549;50.852;3.816;2022-10-17T06:02:04;10.68;;;9.10;;
22764;SDS011;11549;50.852;3.816;2022-10-17T06:04:33;14.15;;;9.95;;
22764;SDS011;11549;50.852;3.816;2022-10-17T06:07:01;12.50;;;9.65;;
22764;SDS011;11549;50.852;3.816;2022-10-17T06:09:29;14.85;;;9.57;;
22764;SDS011;11549;50.852;3.816;2022-10-17T06:11:59;15.32;;;9.70;;
22764;SDS011;11549;50.852;3.816;2022-10-17T06:14:27;13.70;;;9.70;;
22764;SDS011;11549;50.852;3.816;2022-10-17T06:16:55;12.25;;;9.40;;
22764;SDS011;11549;50.852;3.816;2022-10-17T06:19:24;16.77;;;10.38;;
22764;SDS011;11549;50.852;3.816;2022-10-17T06:21:52;17.65;;;9.52;;
22764;SDS011;11549;50.852;3.816;2022-10-17T06:24:20;14.85;;;10.02;;
22764;SDS011;11549;50.852;3.816;2022-10-17T06:26:49;22.77;;;11.45;;
22764;SDS011;11549;50.852;3.816;2022-10-17T06:29:19;15.43;;;9.93;;
22764;SDS011;11549;50.852;3.816;2022-10-17T06:31:47;12.82;;;8.18;;
22764;SDS011;11549;50.852;3.816;2022-10-17T06:34:15;15.40;;;9.13;;
22764;SDS011;11549;50.852;3.816;2022-10-17T06:36:44;13.35;;;8.32;;
22764;SDS011;11549;50.852;3.816;2022-10-17T06:39:13;13.82;;;8.07;;
22764;SDS011;11549;50.852;3.816;2022-10-17T06:41:41;10.82;;;7.10;;
22764;SDS011;11549;50.852;3.816;2022-10-17T06:44:10;11.27;;;7.30;;
22764;SDS011;11549;50.852;3.816;2022-10-17T06:46:40;11.30;;;7.60;;
22764;SDS011;11549;50.852;3.816;2022-10-17T06:49:08;8.95;;;6.97;;
22764;SDS011;11549;50.852;3.816;2022-10-17T06:51:37;10.43;;;6.78;;
22764;SDS011;11549;50.852;3.816;2022-10-17T06:54:05;8.35;;;6.82;;
22764;SDS011;11549;50.852;3.816;2022-10-17T06:56:33;10.45;;;6.82;;
22764;SDS011;11549;50.852;3.816;2022-10-17T06:59:02;10.15;;;6.75;;
22764;SDS011;11549;50.852;3.816;2022-10-17T07:01:30;10.23;;;6.90;;
22764;SDS011;11549;50.852;3.816;2022-10-17T07:04:01;12.85;;;7.32;;
22764;SDS011;11549;50.852;3.816;2022-10-17T07:06:29;10.65;;;7.28;;
22764;SDS011;11549;50.852;3.816;2022-10-17T07:08:58;15.00;;;8.60;;
22764;SDS011;11549;50.852;3.816;2022-10-17T07:11:28;12.45;;;8.55;;
22764;SDS011;11549;50.852;3.816;2022-10-17T07:13:56;12.07;;;8.80;;
22764;SDS011;11549;50.852;3.816;2022-10-17T07:16:24;12.55;;;9.43;;
22764;SDS011;11549;50.852;3.816;2022-10-17T07:18:53;14.38;;;10.30;;
22764;SDS011;11549;50.852;3.816;2022-10-17T07:21:23;14.02;;;9.82;;
22764;SDS011;11549;50.852;3.816;2022-10-17T07:23:52;16.58;;;9.50;;
22764;SDS011;11549;50.852;3.816;2022-10-17T07:26:20;11.85;;;8.80;;
22764;SDS011;11549;50.852;3.816;2022-10-17T07:28:50;14.25;;;9.25;;
22764;SDS011;11549;50.852;3.816;2022-10-17T07:31:21;12.20;;;8.27;;
22764;SDS011;11549;50.852;3.816;2022-10-17T07:33:49;12.18;;;8.48;;
22764;SDS011;11549;50.852;3.816;2022-10-17T07:36:18;10.88;;;8.20;;
22764;SDS011;11549;50.852;3.816;2022-10-17T07:38:49;10.82;;;8.02;;
22764;SDS011;11549;50.852;3.816;2022-10-17T07:41:17;12.70;;;8.20;;
22764;SDS011;11549;50.852;3.816;2022-10-17T07:43:47;12.55;;;8.40;;
22764;SDS011;11549;50.852;3.816;2022-10-17T07:46:16;10.60;;;7.80;;
22764;SDS011;11549;50.852;3.816;2022-10-17T07:48:45;11.98;;;7.82;;
22764;SDS011;11549;50.852;3.816;2022-10-17T07:51:14;11.48;;;7.57;;
22764;SDS011;11549;50.852;3.816;2022-10-17T07:53:44;10.23;;;7.28;;
22764;SDS011;11549;50.852;3.816;2022-10-17T07:56:15;10.68;;;7.47;;
22764;SDS011;11549;50.852;3.816;2022-10-17T07:58:43;11.10;;;7.25;;
22764;SDS011;11549;50.852;3.816;2022-10-17T08:01:14;10.77;;;7.40;;
22764;SDS011;11549;50.852;3.816;2022-10-17T08:03:43;9.85;;;7.85;;
22764;SDS011;11549;50.852;3.816;2022-10-17T08:06:11;10.15;;;8.20;;
22764;SDS011;11549;50.852;3.816;2022-10-17T08:08:40;11.13;;;7.93;;
22764;SDS011;11549;50.852;3.816;2022-10-17T08:11:10;10.52;;;8.18;;
22764;SDS011;11549;50.852;3.816;2022-10-17T08:13:42;11.52;;;7.45;;
22764;SDS011;11549;50.852;3.816;2022-10-17T08:16:11;9.65;;;7.45;;
22764;SDS011;11549;50.852;3.816;2022-10-17T08:18:40;10.32;;;7.25;;
22764;SDS011;11549;50.852;3.816;2022-10-17T08:21:10;10.80;;;7.05;;
22764;SDS011;11549;50.852;3.816;2022-10-17T08:23:39;8.23;;;6.70;;
22764;SDS011;11549;50.852;3.816;2022-10-17T08:26:07;10.30;;;7.63;;
22764;SDS011;11549;50.852;3.816;2022-10-17T08:28:39;11.55;;;8.10;;
22764;SDS011;11549;50.852;3.816;2022-10-17T08:31:10;11.25;;;7.47;;
22764;SDS011;11549;50.852;3.816;2022-10-17T08:33:40;12.15;;;7.88;;
22764;SDS011;11549;50.852;3.816;2022-10-17T08:36:09;14.60;;;8.48;;
22764;SDS011;11549;50.852;3.816;2022-10-17T08:38:39;11.60;;;8.32;;
22764;SDS011;11549;50.852;3.816;2022-10-17T08:41:13;12.52;;;8.70;;
22764;SDS011;11549;50.852;3.816;2022-10-17T08:43:49;13.35;;;8.95;;
22764;SDS011;11549;50.852;3.816;2022-10-17T08:46:29;13.45;;;8.65;;
22764;SDS011;11549;50.852;3.816;2022-10-17T08:49:00;13.52;;;8.95;;
22764;SDS011;11549;50.852;3.816;2022-10-17T08:51:36;10.57;;;8.65;;
22764;SDS011;11549;50.852;3.816;2022-10-17T08:54:13;12.32;;;8.63;;
22764;SDS011;11549;50.852;3.816;2022-10-17T08:56:47;13.63;;;8.18;;
22764;SDS011;11549;50.852;3.816;2022-10-17T08:59:17;12.70;;;8.23;;
22764;SDS011;11549;50.852;3.816;2022-10-17T09:01:57;12.07;;;8.05;;
22764;SDS011;11549;50.852;3.816;2022-10-17T09:04:39;10.55;;;7.78;;
22764;SDS011;11549;50.852;3.816;2022-10-17T09:07:17;10.68;;;8.13;;
22764;SDS011;11549;50.852;3.816;2022-10-17T09:09:54;10.73;;;8.00;;
22764;SDS011;11549;50.852;3.816;2022-10-17T09:12:30;10.35;;;7.35;;
22764;SDS011;11549;50.852;3.816;2022-10-17T09:15:10;10.65;;;7.55;;
22764;SDS011;11549;50.852;3.816;2022-10-17T09:17:57;10.20;;;6.68;;
22764;SDS011;11549;50.852;3.816;2022-10-17T09:20:29;11.40;;;8.20;;
22764;SDS011;11549;50.852;3.816;2022-10-17T09:23:01;14.63;;;8.68;;
22764;SDS011;11549;50.852;3.816;2022-10-17T09:25:38;13.50;;;9.18;;
22764;SDS011;11549;50.852;3.816;2022-10-17T09:28:11;11.50;;;8.48;;
22764;SDS011;11549;50.852;3.816;2022-10-17T09:30:42;13.45;;;9.88;;
22764;SDS011;11549;50.852;3.816;2022-10-17T09:33:14;11.77;;;8.73;;
22764;SDS011;11549;50.852;3.816;2022-10-17T09:36:05;14.10;;;9.20;;
22764;SDS011;11549;50.852;3.816;2022-10-17T09:38:38;11.73;;;9.85;;
22764;SDS011;11549;50.852;3.816;2022-10-17T09:41:12;12.85;;;10.15;;
22764;SDS011;11549;50.852;3.816;2022-10-17T09:44:14;17.27;;;10.85;;
22764;SDS011;11549;50.852;3.816;2022-10-17T09:46:51;14.50;;;10.48;;
22764;SDS011;11549;50.852;3.816;2022-10-17T09:49:27;14.20;;;10.75;;
22764;SDS011;11549;50.852;3.816;2022-10-17T09:52:00;14.82;;;10.93;;
22764;SDS011;11549;50.852;3.816;2022-10-17T09:54:33;13.00;;;9.73;;
22764;SDS011;11549;50.852;3.816;2022-10-17T09:57:08;14.95;;;10.57;;
22764;SDS011;11549;50.852;3.816;2022-10-17T09:59:39;13.15;;;10.35;;
22764;SDS011;11549;50.852;3.816;2022-10-17T10:02:16;15.43;;;11.07;;
22764;SDS011;11549;50.852;3.816;2022-10-17T10:04:54;14.55;;;10.80;;
22764;SDS011;11549;50.852;3.816;2022-10-17T10:07:32;17.52;;;11.02;;
22764;SDS011;11549;50.852;3.816;2022-10-17T10:10:02;19.33;;;11.45;;
22764;SDS011;11549;50.852;3.816;2022-10-17T10:12:34;17.60;;;11.82;;
22764;SDS011;11549;50.852;3.816;2022-10-17T10:18:00;13.57;;;9.75;;
22764;SDS011;11549;50.852;3.816;2022-10-17T10:20:32;12.05;;;9.25;;
22764;SDS011;11549;50.852;3.816;2022-10-17T10:23:05;12.10;;;8.32;;
22764;SDS011;11549;50.852;3.816;2022-10-17T10:25:47;13.60;;;9.20;;
22764;SDS011;11549;50.852;3.816;2022-10-17T10:28:20;13.35;;;9.10;;
22764;SDS011;11549;50.852;3.816;2022-10-17T10:30:52;13.60;;;8.95;;
22764;SDS011;11549;50.852;3.816;2022-10-17T10:33:24;12.57;;;9.82;;
22764;SDS011;11549;50.852;3.816;2022-10-17T10:35:56;16.88;;;9.65;;
22764;SDS011;11549;50.852;3.816;2022-10-17T10:38:27;12.63;;;8.57;;
22764;SDS011;11549;50.852;3.816;2022-10-17T10:41:00;11.82;;;8.00;;
22764;SDS011;11549;50.852;3.816;2022-10-17T10:43:32;10.48;;;7.45;;
22764;SDS011;11549;50.852;3.816;2022-10-17T10:46:03;11.30;;;8.00;;
22764;SDS011;11549;50.852;3.816;2022-10-17T10:48:48;11.82;;;6.72;;
22764;SDS011;11549;50.852;3.816;2022-10-17T10:51:20;9.77;;;6.50;;
22764;SDS011;11549;50.852;3.816;2022-10-17T10:53:55;11.55;;;6.25;;
22764;SDS011;11549;50.852;3.816;2022-10-17T10:56:28;9.50;;;6.15;;
22764;SDS011;11549;50.852;3.816;2022-10-17T10:59:02;8.98;;;6.00;;
22764;SDS011;11549;50.852;3.816;2022-10-17T11:01:38;9.98;;;6.53;;
22764;SDS011;11549;50.852;3.816;2022-10-17T11:07:08;9.88;;;6.68;;
22764;SDS011;11549;50.852;3.816;2022-10-17T11:09:44;11.75;;;6.95;;
22764;SDS011;11549;50.852;3.816;2022-10-17T11:12:23;9.63;;;7.03;;
22764;SDS011;11549;50.852;3.816;2022-10-17T11:14:56;10.20;;;6.95;;
22764;SDS011;11549;50.852;3.816;2022-10-17T11:17:31;10.45;;;6.93;;
22764;SDS011;11549;50.852;3.816;2022-10-17T11:20:10;9.95;;;7.57;;
22764;SDS011;11549;50.852;3.816;2022-10-17T11:22:47;9.45;;;6.80;;
22764;SDS011;11549;50.852;3.816;2022-10-17T11:25:21;13.70;;;8.13;;
22764;SDS011;11549;50.852;3.816;2022-10-17T11:27:58;10.23;;;7.28;;
22764;SDS011;11549;50.852;3.816;2022-10-17T11:30:38;10.02;;;6.90;;
22764;SDS011;11549;50.852;3.816;2022-10-17T11:33:17;13.00;;;7.22;;
22764;SDS011;11549;50.852;3.816;2022-10-17T11:35:52;12.55;;;7.57;;
22764;SDS011;11549;50.852;3.816;2022-10-17T11:38:26;12.98;;;7.40;;
22764;SDS011;11549;50.852;3.816;2022-10-17T11:41:03;11.35;;;7.28;;
22764;SDS011;11549;50.852;3.816;2022-10-17T11:43:34;11.95;;;7.57;;
22764;SDS011;11549;50.852;3.816;2022-10-17T11:46:10;11.65;;;7.07;;
22764;SDS011;11549;50.852;3.816;2022-10-17T11:48:43;11.55;;;7.15;;
22764;SDS011;11549;50.852;3.816;2022-10-17T11:51:17;10.82;;;6.82;;
22764;SDS011;11549;50.852;3.816;2022-10-17T11:54:08;9.57;;;6.43;;
22764;SDS011;11549;50.852;3.816;2022-10-17T11:56:41;10.45;;;6.30;;
22764;SDS011;11549;50.852;3.816;2022-10-17T11:59:21;9.00;;;6.10;;
22764;SDS011;11549;50.852;3.816;2022-10-17T12:02:08;9.65;;;5.85;;
22764;SDS011;11549;50.852;3.816;2022-10-17T12:04:44;9.05;;;6.05;;
22764;SDS011;11549;50.852;3.816;2022-10-17T12:07:32;8.90;;;6.25;;
22764;SDS011;11549;50.852;3.816;2022-10-17T12:13:09;7.77;;;5.60;;
22764;SDS011;11549;50.852;3.816;2022-10-17T12:16:36;7.55;;;5.15;;
22764;SDS011;11549;50.852;3.816;2022-10-17T12:22:04;9.10;;;5.65;;
22764;SDS011;11549;50.852;3.816;2022-10-17T12:24:44;8.40;;;5.57;;
22764;SDS011;11549;50.852;3.816;2022-10-17T12:27:26;9.85;;;5.55;;
22764;SDS011;11549;50.852;3.816;2022-10-17T12:32:55;11.30;;;5.38;;
22764;SDS011;11549;50.852;3.816;2022-10-17T12:35:33;8.05;;;5.18;;
22764;SDS011;11549;50.852;3.816;2022-10-17T12:38:12;9.40;;;5.60;;
22764;SDS011;11549;50.852;3.816;2022-10-17T12:40:49;8.70;;;5.45;;
22764;SDS011;11549;50.852;3.816;2022-10-17T12:52:22;8.05;;;5.18;;
22764;SDS011;11549;50.852;3.816;2022-10-17T12:54:53;8.65;;;5.88;;
22764;SDS011;11549;50.852;3.816;2022-10-17T12:57:41;10.38;;;5.70;;
22764;SDS011;11549;50.852;3.816;2022-10-17T13:00:19;7.75;;;5.32;;
22764;SDS011;11549;50.852;3.816;2022-10-17T13:02:52;9.33;;;5.67;;
22764;SDS011;11549;50.852;3.816;2022-10-17T13:05:26;9.30;;;5.88;;
22764;SDS011;11549;50.852;3.816;2022-10-17T13:07:58;11.93;;;5.65;;
22764;SDS011;11549;50.852;3.816;2022-10-17T13:10:28;9.65;;;5.53;;
22764;SDS011;11549;50.852;3.816;2022-10-17T13:13:01;10.18;;;5.90;;
22764;SDS011;11549;50.852;3.816;2022-10-17T13:15:33;11.32;;;5.80;;
22764;SDS011;11549;50.852;3.816;2022-10-17T13:18:04;8.40;;;5.18;;
22764;SDS011;11549;50.852;3.816;2022-10-17T13:20:32;7.80;;;5.20;;
22764;SDS011;11549;50.852;3.816;2022-10-17T13:23:01;10.57;;;5.00;;
22764;SDS011;11549;50.852;3.816;2022-10-17T13:25:29;9.13;;;4.95;;
22764;SDS011;11549;50.852;3.816;2022-10-17T13:28:04;8.30;;;5.00;;
22764;SDS011;11549;50.852;3.816;2022-10-17T13:30:37;9.10;;;5.47;;
22764;SDS011;11549;50.852;3.816;2022-10-17T13:33:17;8.07;;;5.18;;
22764;SDS011;11549;50.852;3.816;2022-10-17T13:35:55;7.75;;;4.82;;
22764;SDS011;11549;50.852;3.816;2022-10-17T13:38:27;10.18;;;5.25;;
22764;SDS011;11549;50.852;3.816;2022-10-17T13:41:03;10.35;;;5.20;;
22764;SDS011;11549;50.852;3.816;2022-10-17T13:43:59;7.25;;;5.68;;
22764;SDS011;11549;50.852;3.816;2022-10-17T13:46:28;8.52;;;5.13;;
22764;SDS011;11549;50.852;3.816;2022-10-17T13:49:09;9.90;;;5.50;;
22764;SDS011;11549;50.852;3.816;2022-10-17T13:51:43;8.05;;;4.65;;
22764;SDS011;11549;50.852;3.816;2022-10-17T13:54:17;7.70;;;4.95;;
22764;SDS011;11549;50.852;3.816;2022-10-17T13:56:54;8.63;;;4.85;;
22764;SDS011;11549;50.852;3.816;2022-10-17T13:59:24;7.50;;;4.40;;
22764;SDS011;11549;50.852;3.816;2022-10-17T14:01:54;7.00;;;4.82;;
22764;SDS011;11549;50.852;3.816;2022-10-17T14:04:24;9.45;;;4.53;;
22764;SDS011;11549;50.852;3.816;2022-10-17T14:06:52;7.40;;;4.50;;
22764;SDS011;11549;50.852;3.816;2022-10-17T14:09:22;6.20;;;4.40;;
22764;SDS011;11549;50.852;3.816;2022-10-17T14:11:56;8.35;;;4.20;;
22764;SDS011;11549;50.852;3.816;2022-10-17T14:14:27;8.30;;;5.10;;
22764;SDS011;11549;50.852;3.816;2022-10-17T14:17:16;7.35;;;4.78;;
22764;SDS011;11549;50.852;3.816;2022-10-17T14:19:52;8.38;;;5.10;;
22764;SDS011;11549;50.852;3.816;2022-10-17T14:22:42;9.57;;;4.90;;
22764;SDS011;11549;50.852;3.816;2022-10-17T14:25:27;8.00;;;5.18;;
22764;SDS011;11549;50.852;3.816;2022-10-17T14:28:00;9.30;;;5.10;;
22764;SDS011;11549;50.852;3.816;2022-10-17T14:30:34;9.57;;;5.53;;
22764;SDS011;11549;50.852;3.816;2022-10-17T14:33:22;9.25;;;5.22;;
22764;SDS011;11549;50.852;3.816;2022-10-17T14:35:54;8.60;;;5.00;;
22764;SDS011;11549;50.852;3.816;2022-10-17T14:38:23;10.18;;;6.10;;
22764;SDS011;11549;50.852;3.816;2022-10-17T14:40:54;7.15;;;5.10;;
22764;SDS011;11549;50.852;3.816;2022-10-17T14:43:44;10.27;;;5.85;;
22764;SDS011;11549;50.852;3.816;2022-10-17T14:46:20;9.93;;;5.70;;
22764;SDS011;11549;50.852;3.816;2022-10-17T14:48:52;7.90;;;5.45;;
22764;SDS011;11549;50.852;3.816;2022-10-17T14:51:25;9.93;;;5.45;;
22764;SDS011;11549;50.852;3.816;2022-10-17T14:54:15;8.35;;;5.30;;
22764;SDS011;11549;50.852;3.816;2022-10-17T14:56:48;8.73;;;5.75;;
22764;SDS011;11549;50.852;3.816;2022-10-17T14:59:18;8.50;;;5.97;;
22764;SDS011;11549;50.852;3.816;2022-10-17T15:02:09;7.03;;;5.53;;
22764;SDS011;11549;50.852;3.816;2022-10-17T15:04:38;9.07;;;5.85;;
22764;SDS011;11549;50.852;3.816;2022-10-17T15:07:08;7.53;;;5.57;;
22764;SDS011;11549;50.852;3.816;2022-10-17T15:09:39;7.82;;;5.72;;
22764;SDS011;11549;50.852;3.816;2022-10-17T15:12:11;8.10;;;5.53;;
22764;SDS011;11549;50.852;3.816;2022-10-17T15:14:42;9.75;;;6.00;;
22764;SDS011;11549;50.852;3.816;2022-10-17T15:17:13;10.00;;;5.88;;
22764;SDS011;11549;50.852;3.816;2022-10-17T15:19:43;9.23;;;6.40;;
22764;SDS011;11549;50.852;3.816;2022-10-17T15:22:13;10.23;;;6.07;;
22764;SDS011;11549;50.852;3.816;2022-10-17T15:24:43;9.10;;;6.60;;
22764;SDS011;11549;50.852;3.816;2022-10-17T15:27:13;11.07;;;6.90;;
22764;SDS011;11549;50.852;3.816;2022-10-17T15:29:42;12.27;;;7.00;;
22764;SDS011;11549;50.852;3.816;2022-10-17T15:32:11;8.00;;;6.57;;